Norwich, CT

10:51 PM EDT on October 25, 2014 (GMT -0400)
Center of Town | Change Station
CLOSE
Current Station
Personal Weather Station
Location: Canterbury, CT
Elevation: 272 ft
Nearby Weather Stations

Elev 272 ft 41.69 °N, 71.99 °W | Updated 13 seconds ago

Clear
Clear
46.9 °F
Feels Like 47 °F
N
0.0
Wind Variable Wind from SW
Gusts 0.0 mph

Today
High -- | Low -- °F
--% Chance of Precip.
Yesterday
High -- | Low -- °F
Precip. -- in
7:11 AM 5:51 PM
Waxing Crescent, 5% visible
Pressure 29.57 in
Visibility 10.0 miles
Clouds Clear
Windchill 47 °F
Dew Point 46 °F
Humidity 95%
Rainfall 0.00 in
Snow Depth Not available.
UV 0 out of 12
Pollen 1.10 out of 12
PM2.5 Moderate
Flu Activity Local Activity
METAR KIJD 260152Z AUTO 17003KT 10SM CLR 10/07 A2957 RMK AO2 SLP014 T01000067

More Conditions Fewer Conditions

Pressure 29.57 in
Visibility 10.0 miles
Clouds Clear
Windchill 47 °F
Dew Point 46 °F
Humidity 95%
Rainfall 0.00 in
Snow Depth Not available.
UV 0 out of 12
Pollen 1.10 out of 12
PM2.5 Moderate
Flu Activity Local Activity
METAR KIJD 260152Z AUTO 17003KT 10SM CLR 10/07 A2957 RMK AO2 SLP014 T01000067

More Conditions Fewer Conditions

10-Day Weather Forecast

Almanac

Astronomy

Oct. 25, 2014 Rise Set
Actual Time 7:11 AM EDT 5:51 PM EDT
Civil Twilight 6:42 AM EDT 6:20 PM EDT
Nautical Twilight 6:10 AM EDT 6:52 PM EDT
Astronomical Twilight 5:38 AM EDT 7:24 PM EDT
Moon 8:48 AM EDT (10/25) 7:11 PM EDT (10/25)
Length of Visible Light 11h 37m
Length of Day
10h 40m
Tomorrow will be 2m 34s shorter.
Waxing Crescent, 5% of the Moon is Illuminated
Today
Waxing Crescent
Oct 30
First Quarter
Nov 6
Full
Nov 14
Last Quarter
Nov 22
New

Today's Extremes

State Highs State Lows

Community

WunderPhotos

Upload Photos

1,765,086 photos uploaded!

Nearby

Air Quality

  Air Quality AQ Index Pollutant
Yesterday Good
PM2.5
Current Moderate
PM2.5
Saturday Good
PM2.5
Sunday Good
PM2.5
Monday Good
PM2.5

Snow Depth

Station Depth Elevation
No new snow has been reported.

Earthquake Activity

City Distance Mag. Time & Date
No recent earthquake activity has been reported nearby.
Minimum magnitude displayed is 2.5.

Coastal Water Temperatures

Place Temperature
New London, CT 61.0 °F
New Haven, CT 60.1 °F
Newport, RI 61.0 °F
Quonset Point, RI 59.0 °F
Conimicut Light, RI 60.1 °F
Providence, RI 60.1 °F

Nearby Weather Stations